createdAt,value
2023-02-08T00:07:30.981Z,-1.73
2023-02-08T00:17:34.661Z,-1.72
2023-02-08T00:27:40.896Z,-1.79
2023-02-08T00:37:44.954Z,-1.74
2023-02-08T00:47:49.948Z,-1.82
2023-02-08T00:57:53.597Z,-1.89
2023-02-08T01:07:58.500Z,-2.02
2023-02-08T01:18:02.303Z,-2.00
2023-02-08T01:28:07.418Z,-2.08
2023-02-08T01:38:11.168Z,-2.08
2023-02-08T01:48:21.004Z,-2.14
2023-02-08T01:58:28.160Z,-2.24
2023-02-08T02:08:33.720Z,-2.29
2023-02-08T02:18:37.769Z,-2.39
2023-02-08T02:29:16.714Z,-2.49
2023-02-08T02:39:31.155Z,-2.36
2023-02-08T02:49:40.517Z,-2.39
2023-02-08T02:59:46.966Z,-2.38
2023-02-08T03:10:00.184Z,-2.48
2023-02-08T03:20:11.114Z,-2.39
2023-02-08T03:30:18.838Z,-2.41
2023-02-08T03:40:29.298Z,-2.65
2023-02-08T03:50:37.747Z,-2.56
2023-02-08T04:00:47.978Z,-2.61
2023-02-08T04:10:51.648Z,-2.59
2023-02-08T04:20:56.763Z,-2.70
2023-02-08T04:31:00.730Z,-2.52
2023-02-08T04:41:06.352Z,-2.74
2023-02-08T04:51:10.292Z,-2.80
2023-02-08T05:01:16.363Z,-2.19
2023-02-08T05:11:23.012Z,-2.59
2023-02-08T05:21:28.134Z,-2.68
2023-02-08T05:31:31.872Z,-2.77
2023-02-08T05:41:36.912Z,-2.89
2023-02-08T05:51:40.604Z,-2.99
2023-02-08T06:01:45.549Z,-3.11
2023-02-08T06:11:49.201Z,-3.25
2023-02-08T06:21:54.197Z,-2.83
2023-02-08T06:31:58.131Z,-2.31
2023-02-08T06:42:03.598Z,-2.07
2023-02-08T06:52:07.397Z,-2.40
2023-02-08T07:02:16.493Z,-2.47
2023-02-08T07:12:20.223Z,-2.57
2023-02-08T07:22:25.276Z,-2.49
2023-02-08T07:32:29.054Z,-2.29
2023-02-08T07:42:34.826Z,-2.10
2023-02-08T07:52:38.437Z,-1.75
2023-02-08T08:02:44.389Z,-1.51
2023-02-08T08:12:48.042Z,-1.05
2023-02-08T08:22:53.385Z,-0.55
2023-02-08T08:32:57.157Z,0.17
2023-02-08T08:43:02.773Z,0.19
2023-02-08T08:53:06.772Z,0.46
2023-02-08T09:03:11.764Z,0.44
2023-02-08T09:13:19.518Z,0.84
2023-02-08T09:23:24.691Z,1.37
2023-02-08T09:33:28.409Z,1.51
2023-02-08T09:43:45.098Z,1.52
2023-02-08T09:53:53.975Z,1.67
2023-02-08T10:04:04.635Z,1.99
2023-02-08T10:14:27.723Z,2.00
2023-02-08T10:25:04.308Z,2.68
2023-02-08T10:35:13.429Z,2.65
2023-02-08T10:45:27.889Z,2.88
2023-02-08T10:55:36.177Z,3.03
2023-02-08T11:05:42.690Z,3.08
2023-02-08T11:15:49.906Z,3.18
2023-02-08T11:25:56.641Z,3.76
2023-02-08T11:36:05.396Z,3.74
2023-02-08T11:46:12.181Z,3.83
2023-02-08T11:56:21.011Z,4.53
2023-02-08T12:07:19.672Z,4.55
2023-02-08T12:17:49.111Z,4.62
2023-02-08T12:28:04.238Z,5.35
2023-02-08T12:38:30.707Z,5.34
2023-02-08T12:49:03.696Z,5.52
2023-02-08T12:59:13.833Z,5.63
2023-02-08T13:09:30.144Z,5.42
2023-02-08T13:19:59.000Z,5.75
2023-02-08T13:30:06.998Z,5.79
2023-02-08T13:40:21.909Z,6.01
2023-02-08T13:50:47.520Z,6.02
2023-02-08T14:01:15.109Z,6.17
2023-02-08T14:11:37.290Z,6.02
2023-02-08T14:21:46.166Z,5.96
2023-02-08T14:31:51.886Z,5.97
2023-02-08T14:42:01.347Z,5.94
2023-02-08T14:52:13.464Z,5.80
2023-02-08T15:02:22.422Z,5.77
2023-02-08T15:12:31.781Z,5.87
2023-02-08T15:22:39.838Z,5.55
2023-02-08T15:32:44.875Z,5.57
2023-02-08T15:42:48.646Z,5.69
2023-02-08T15:53:00.683Z,5.31
2023-02-08T16:03:09.467Z,5.39
2023-02-08T16:13:23.309Z,4.66
2023-02-08T16:23:30.035Z,4.39
2023-02-08T16:33:37.338Z,3.49
2023-02-08T16:43:43.910Z,2.88
2023-02-08T16:53:50.181Z,2.44
2023-02-08T17:03:53.862Z,2.12
2023-02-08T17:13:59.323Z,1.91
2023-02-08T17:24:03.367Z,1.47
2023-02-08T17:34:08.472Z,1.33
2023-02-08T17:44:12.880Z,1.45
2023-02-08T17:54:19.500Z,1.11
2023-02-08T18:04:23.147Z,0.91
2023-02-08T18:14:28.272Z,0.60
2023-02-08T18:24:32.416Z,0.75
2023-02-08T18:34:37.544Z,0.43
2023-02-08T18:44:41.434Z,0.13
2023-02-08T18:54:46.511Z,0.15
2023-02-08T19:04:50.259Z,-0.03
2023-02-08T19:14:55.340Z,-0.08
2023-02-08T19:24:59.096Z,-0.32
2023-02-08T19:35:04.222Z,-0.35
2023-02-08T19:45:09.456Z,0.00
2023-02-08T19:55:14.559Z,0.11
2023-02-08T20:05:18.453Z,-0.16
2023-02-08T20:15:23.453Z,-0.19
2023-02-08T20:25:27.160Z,-0.12
2023-02-08T20:35:32.219Z,0.00
2023-02-08T20:45:35.940Z,-0.04
2023-02-08T20:55:43.845Z,-0.31
2023-02-08T21:05:47.825Z,-0.79
2023-02-08T21:15:52.860Z,-1.03
2023-02-08T21:25:56.559Z,-1.12
2023-02-08T21:36:06.145Z,-1.22
2023-02-08T21:46:10.814Z,-1.39
2023-02-08T21:56:15.851Z,-1.37
2023-02-08T22:06:37.271Z,-1.37
2023-02-08T22:16:42.677Z,-1.54
2023-02-08T22:26:46.426Z,-1.77
2023-02-08T22:36:51.498Z,-1.98
2023-02-08T22:46:57.340Z,-2.08
2023-02-08T22:57:02.572Z,-2.08
2023-02-08T23:07:06.440Z,-2.16
2023-02-08T23:17:11.824Z,-2.34
2023-02-08T23:27:15.495Z,-2.42
2023-02-08T23:37:20.484Z,-2.57
2023-02-08T23:47:25.909Z,-2.63
2023-02-08T23:57:34.763Z,-2.70
